Aérodrome :
LOGIN :

S'inscrire | Disclaimer

   EN    FR    IT 

 










Légende :    VFR   VFR Marginal   IFR   IFR Intensif   IFR Très Intensif
Visi : 
Plafond : 
>= 8 km
>= 3000ft
5 à 8 km
1000 à 3000 ft
1500m à 5 km
500 à 1000 ft
800 à 1500m
200 à 500 ft
< 800m
< 200 ft
Symboles :   Orages  Brouillard  Fortes neiges  Fortes précipitations  Vent > 20 kt
SIGMETs :   Divers  Orages  Givrage  Turbulence  Onde Orograph.  Cendres Volcan.






- Altitude de l'aérodrome : 14 ft
- Code IATA : BRE


EDDW - Bremen Neuenland

DERNIER METAR :
  • 120220Z 18004KT 150V220 5000 BR BKN012 04/04 Q1001

METARs EXPIRÉS :
  • 120150Z 20004KT 5000 BR BKN021 04/04 Q1002
  • 120120Z 21004KT 5000 BR BKN019 04/04 Q1002
  • 120050Z 21006KT 5000 BR SCT018 BKN029 04/04 Q1002
  • 120020Z 21006KT 5000 BR BKN010 04/04 Q1002
  • 112350Z 20005KT 170V230 4500 BR BKN007 04/04 Q1002

TAF TAF EDDW
Valide du 12 à 00h jusqu'au 13 à 00h UTC


112300Z 1200/1224 21007KT 4000 BR BKN008
BECMG 1207/1210 9999 BKN012
BECMG 1210/1213 BKN025
BECMG 1218/1221 14012KT



MET'MAP, la Météo Aéronautique d'un coup d'oeil ! - Copyright ORBIFLY Décembre 2007 - Disclaimer

ORBIFLY MET'MAP TEAM :

Programmation & Développement : Alexandra Zaïnal
Sur une idée originale de : Baudouin d'Aumeries
Assistance à la programmation : Marc-Olivier Méhu
Soutien technique & logistique : Manuel Goepfert

Contact : metmap@orbifly.com




SOURCES & CREDITS :

   NOAA